sensor_id;sensor_type;location;lat;lon;timestamp;P1;durP1;ratioP1;P2;durP2;ratioP2
69410;SDS011;56604;48.652;9.194;2023-10-13T00:00:37;10.03;;;4.13;;
69410;SDS011;56604;48.652;9.194;2023-10-13T00:03:05;8.60;;;4.00;;
69410;SDS011;56604;48.652;9.194;2023-10-13T00:05:32;26.87;;;4.47;;
69410;SDS011;56604;48.652;9.194;2023-10-13T00:08:01;8.93;;;3.97;;
69410;SDS011;56604;48.652;9.194;2023-10-13T00:10:28;10.73;;;3.50;;
69410;SDS011;56604;48.652;9.194;2023-10-13T00:12:57;6.20;;;3.77;;
69410;SDS011;56604;48.652;9.194;2023-10-13T00:15:44;10.17;;;4.07;;
69410;SDS011;56604;48.652;9.194;2023-10-13T00:18:20;6.10;;;4.20;;
69410;SDS011;56604;48.652;9.194;2023-10-13T00:20:46;7.90;;;4.10;;
69410;SDS011;56604;48.652;9.194;2023-10-13T00:23:15;14.97;;;4.70;;
69410;SDS011;56604;48.652;9.194;2023-10-13T00:25:50;13.87;;;3.70;;
69410;SDS011;56604;48.652;9.194;2023-10-13T00:28:16;13.43;;;5.23;;
69410;SDS011;56604;48.652;9.194;2023-10-13T00:30:52;15.60;;;4.63;;
69410;SDS011;56604;48.652;9.194;2023-10-13T00:33:24;25.30;;;4.50;;
69410;SDS011;56604;48.652;9.194;2023-10-13T00:35:50;5.97;;;4.60;;
69410;SDS011;56604;48.652;9.194;2023-10-13T00:38:18;11.27;;;3.67;;
69410;SDS011;56604;48.652;9.194;2023-10-13T00:40:44;16.43;;;3.93;;
69410;SDS011;56604;48.652;9.194;2023-10-13T00:43:17;6.10;;;4.17;;
69410;SDS011;56604;48.652;9.194;2023-10-13T00:45:43;16.63;;;4.83;;
69410;SDS011;56604;48.652;9.194;2023-10-13T00:48:10;7.50;;;4.63;;
69410;SDS011;56604;48.652;9.194;2023-10-13T00:50:37;23.30;;;4.73;;
69410;SDS011;56604;48.652;9.194;2023-10-13T00:53:03;7.07;;;4.17;;
69410;SDS011;56604;48.652;9.194;2023-10-13T00:55:29;14.20;;;3.83;;
69410;SDS011;56604;48.652;9.194;2023-10-13T00:57:58;7.40;;;3.80;;
69410;SDS011;56604;48.652;9.194;2023-10-13T01:00:28;7.03;;;4.03;;
69410;SDS011;56604;48.652;9.194;2023-10-13T01:02:54;13.03;;;4.07;;
69410;SDS011;56604;48.652;9.194;2023-10-13T01:05:30;4.40;;;4.00;;
69410;SDS011;56604;48.652;9.194;2023-10-13T01:08:00;10.50;;;4.80;;
69410;SDS011;56604;48.652;9.194;2023-10-13T01:10:26;6.80;;;4.13;;
69410;SDS011;56604;48.652;9.194;2023-10-13T01:12:52;13.00;;;5.37;;
69410;SDS011;56604;48.652;9.194;2023-10-13T01:15:19;9.80;;;4.27;;
69410;SDS011;56604;48.652;9.194;2023-10-13T01:17:47;10.93;;;4.17;;
69410;SDS011;56604;48.652;9.194;2023-10-13T01:20:13;10.00;;;4.00;;
69410;SDS011;56604;48.652;9.194;2023-10-13T01:22:45;9.23;;;4.13;;
69410;SDS011;56604;48.652;9.194;2023-10-13T01:25:20;15.43;;;4.10;;
69410;SDS011;56604;48.652;9.194;2023-10-13T01:27:50;16.33;;;4.20;;
69410;SDS011;56604;48.652;9.194;2023-10-13T01:30:16;18.83;;;4.97;;
69410;SDS011;56604;48.652;9.194;2023-10-13T01:32:41;7.03;;;4.30;;
69410;SDS011;56604;48.652;9.194;2023-10-13T01:35:11;13.50;;;4.60;;
69410;SDS011;56604;48.652;9.194;2023-10-13T01:37:36;9.97;;;4.30;;
69410;SDS011;56604;48.652;9.194;2023-10-13T01:40:01;6.53;;;3.53;;
69410;SDS011;56604;48.652;9.194;2023-10-13T01:42:27;7.03;;;4.60;;
69410;SDS011;56604;48.652;9.194;2023-10-13T01:44:53;14.13;;;4.20;;
69410;SDS011;56604;48.652;9.194;2023-10-13T01:47:30;7.73;;;4.30;;
69410;SDS011;56604;48.652;9.194;2023-10-13T01:49:56;9.33;;;4.30;;
69410;SDS011;56604;48.652;9.194;2023-10-13T01:52:23;18.47;;;4.87;;
69410;SDS011;56604;48.652;9.194;2023-10-13T01:54:50;9.47;;;4.50;;
69410;SDS011;56604;48.652;9.194;2023-10-13T01:57:15;11.90;;;4.60;;
69410;SDS011;56604;48.652;9.194;2023-10-13T01:59:44;11.40;;;4.57;;
69410;SDS011;56604;48.652;9.194;2023-10-13T02:02:12;6.83;;;4.10;;
69410;SDS011;56604;48.652;9.194;2023-10-13T02:04:42;7.97;;;4.30;;
69410;SDS011;56604;48.652;9.194;2023-10-13T02:07:14;11.37;;;4.80;;
69410;SDS011;56604;48.652;9.194;2023-10-13T02:09:40;11.63;;;4.63;;
69410;SDS011;56604;48.652;9.194;2023-10-13T02:12:07;5.70;;;3.57;;
69410;SDS011;56604;48.652;9.194;2023-10-13T02:14:34;17.87;;;4.30;;
69410;SDS011;56604;48.652;9.194;2023-10-13T02:17:02;9.03;;;4.20;;
69410;SDS011;56604;48.652;9.194;2023-10-13T02:19:48;9.93;;;4.50;;
69410;SDS011;56604;48.652;9.194;2023-10-13T02:22:14;18.87;;;4.63;;
69410;SDS011;56604;48.652;9.194;2023-10-13T02:24:54;11.77;;;4.40;;
69410;SDS011;56604;48.652;9.194;2023-10-13T02:27:26;12.10;;;4.10;;
69410;SDS011;56604;48.652;9.194;2023-10-13T02:29:51;10.40;;;4.50;;
69410;SDS011;56604;48.652;9.194;2023-10-13T02:32:23;16.53;;;4.90;;
69410;SDS011;56604;48.652;9.194;2023-10-13T02:34:48;14.13;;;4.33;;
69410;SDS011;56604;48.652;9.194;2023-10-13T02:37:14;10.50;;;3.97;;
69410;SDS011;56604;48.652;9.194;2023-10-13T02:39:39;7.63;;;3.97;;
69410;SDS011;56604;48.652;9.194;2023-10-13T02:42:08;15.17;;;4.50;;
69410;SDS011;56604;48.652;9.194;2023-10-13T02:44:41;13.77;;;4.20;;
69410;SDS011;56604;48.652;9.194;2023-10-13T02:47:11;10.47;;;4.70;;
69410;SDS011;56604;48.652;9.194;2023-10-13T02:49:39;16.13;;;4.70;;
69410;SDS011;56604;48.652;9.194;2023-10-13T02:52:08;9.13;;;4.27;;
69410;SDS011;56604;48.652;9.194;2023-10-13T02:54:34;12.40;;;4.47;;
69410;SDS011;56604;48.652;9.194;2023-10-13T02:57:05;5.37;;;4.10;;
69410;SDS011;56604;48.652;9.194;2023-10-13T02:59:31;6.00;;;4.60;;
69410;SDS011;56604;48.652;9.194;2023-10-13T03:02:13;12.67;;;4.57;;
69410;SDS011;56604;48.652;9.194;2023-10-13T03:04:46;11.03;;;4.40;;
69410;SDS011;56604;48.652;9.194;2023-10-13T03:07:12;8.03;;;4.30;;
69410;SDS011;56604;48.652;9.194;2023-10-13T03:09:40;12.63;;;4.20;;
69410;SDS011;56604;48.652;9.194;2023-10-13T03:12:16;21.43;;;3.90;;
69410;SDS011;56604;48.652;9.194;2023-10-13T03:14:42;13.43;;;4.40;;
69410;SDS011;56604;48.652;9.194;2023-10-13T03:17:12;9.13;;;4.97;;
69410;SDS011;56604;48.652;9.194;2023-10-13T03:19:47;11.30;;;4.50;;
69410;SDS011;56604;48.652;9.194;2023-10-13T03:22:15;9.80;;;4.20;;
69410;SDS011;56604;48.652;9.194;2023-10-13T03:24:41;12.50;;;5.10;;
69410;SDS011;56604;48.652;9.194;2023-10-13T03:27:17;30.83;;;8.03;;
69410;SDS011;56604;48.652;9.194;2023-10-13T03:29:48;22.10;;;5.70;;
69410;SDS011;56604;48.652;9.194;2023-10-13T03:32:19;12.43;;;4.63;;
69410;SDS011;56604;48.652;9.194;2023-10-13T03:34:45;12.30;;;4.93;;
69410;SDS011;56604;48.652;9.194;2023-10-13T03:37:24;16.83;;;4.87;;
69410;SDS011;56604;48.652;9.194;2023-10-13T03:40:09;8.20;;;3.80;;
69410;SDS011;56604;48.652;9.194;2023-10-13T03:42:52;20.53;;;4.90;;
69410;SDS011;56604;48.652;9.194;2023-10-13T03:45:37;6.80;;;4.20;;
69410;SDS011;56604;48.652;9.194;2023-10-13T03:48:09;6.30;;;4.03;;
69410;SDS011;56604;48.652;9.194;2023-10-13T03:50:46;11.13;;;4.80;;
69410;SDS011;56604;48.652;9.194;2023-10-13T03:53:13;17.40;;;4.60;;
69410;SDS011;56604;48.652;9.194;2023-10-13T03:55:39;13.80;;;4.37;;
69410;SDS011;56604;48.652;9.194;2023-10-13T03:58:04;10.83;;;4.83;;
69410;SDS011;56604;48.652;9.194;2023-10-13T04:00:30;7.50;;;4.57;;
69410;SDS011;56604;48.652;9.194;2023-10-13T04:02:57;16.73;;;4.50;;
69410;SDS011;56604;48.652;9.194;2023-10-13T04:05:34;4.77;;;4.20;;
69410;SDS011;56604;48.652;9.194;2023-10-13T04:08:12;15.70;;;4.60;;
69410;SDS011;56604;48.652;9.194;2023-10-13T04:10:52;13.17;;;4.83;;
69410;SDS011;56604;48.652;9.194;2023-10-13T04:13:20;24.17;;;5.07;;
69410;SDS011;56604;48.652;9.194;2023-10-13T04:16:06;17.27;;;5.10;;
69410;SDS011;56604;48.652;9.194;2023-10-13T04:18:50;17.73;;;4.37;;
69410;SDS011;56604;48.652;9.194;2023-10-13T04:21:19;7.80;;;4.83;;
69410;SDS011;56604;48.652;9.194;2023-10-13T04:24:08;10.43;;;4.83;;
69410;SDS011;56604;48.652;9.194;2023-10-13T04:26:54;10.70;;;5.13;;
69410;SDS011;56604;48.652;9.194;2023-10-13T04:29:39;14.20;;;4.23;;
69410;SDS011;56604;48.652;9.194;2023-10-13T04:32:20;12.10;;;4.30;;
69410;SDS011;56604;48.652;9.194;2023-10-13T04:34:58;12.37;;;4.60;;
69410;SDS011;56604;48.652;9.194;2023-10-13T04:37:43;6.70;;;4.97;;
69410;SDS011;56604;48.652;9.194;2023-10-13T04:40:40;17.47;;;4.87;;
69410;SDS011;56604;48.652;9.194;2023-10-13T04:43:23;14.03;;;4.73;;
69410;SDS011;56604;48.652;9.194;2023-10-13T04:46:11;13.00;;;5.07;;
69410;SDS011;56604;48.652;9.194;2023-10-13T04:48:50;6.60;;;4.63;;
69410;SDS011;56604;48.652;9.194;2023-10-13T04:51:15;11.73;;;4.83;;
69410;SDS011;56604;48.652;9.194;2023-10-13T04:53:59;10.53;;;4.60;;
69410;SDS011;56604;48.652;9.194;2023-10-13T04:56:50;7.97;;;5.17;;
69410;SDS011;56604;48.652;9.194;2023-10-13T04:59:38;11.80;;;3.90;;
69410;SDS011;56604;48.652;9.194;2023-10-13T05:02:23;14.00;;;4.80;;
69410;SDS011;56604;48.652;9.194;2023-10-13T05:05:04;16.63;;;4.50;;
69410;SDS011;56604;48.652;9.194;2023-10-13T05:07:39;7.73;;;4.53;;
69410;SDS011;56604;48.652;9.194;2023-10-13T05:10:23;15.33;;;5.07;;
69410;SDS011;56604;48.652;9.194;2023-10-13T05:13:07;6.10;;;4.40;;
69410;SDS011;56604;48.652;9.194;2023-10-13T05:15:51;8.40;;;5.20;;
69410;SDS011;56604;48.652;9.194;2023-10-13T05:18:35;10.50;;;4.10;;
69410;SDS011;56604;48.652;9.194;2023-10-13T05:21:20;8.70;;;4.20;;
69410;SDS011;56604;48.652;9.194;2023-10-13T05:24:04;11.53;;;4.40;;
69410;SDS011;56604;48.652;9.194;2023-10-13T05:26:49;16.80;;;4.80;;
69410;SDS011;56604;48.652;9.194;2023-10-13T05:29:33;11.07;;;5.00;;
69410;SDS011;56604;48.652;9.194;2023-10-13T05:32:17;7.60;;;4.40;;
69410;SDS011;56604;48.652;9.194;2023-10-13T05:35:01;6.73;;;4.40;;
69410;SDS011;56604;48.652;9.194;2023-10-13T05:37:45;14.40;;;4.50;;
69410;SDS011;56604;48.652;9.194;2023-10-13T05:40:29;17.53;;;6.27;;
69410;SDS011;56604;48.652;9.194;2023-10-13T05:43:13;11.40;;;4.70;;
69410;SDS011;56604;48.652;9.194;2023-10-13T05:46:00;13.77;;;4.63;;
69410;SDS011;56604;48.652;9.194;2023-10-13T05:48:46;10.20;;;4.67;;
69410;SDS011;56604;48.652;9.194;2023-10-13T05:51:26;9.83;;;4.60;;
69410;SDS011;56604;48.652;9.194;2023-10-13T05:54:12;11.80;;;4.73;;
69410;SDS011;56604;48.652;9.194;2023-10-13T05:56:38;8.80;;;4.47;;
69410;SDS011;56604;48.652;9.194;2023-10-13T05:59:21;13.97;;;4.90;;
69410;SDS011;56604;48.652;9.194;2023-10-13T06:02:06;9.77;;;4.17;;
69410;SDS011;56604;48.652;9.194;2023-10-13T06:04:50;8.10;;;4.43;;
69410;SDS011;56604;48.652;9.194;2023-10-13T06:07:34;7.13;;;3.83;;
69410;SDS011;56604;48.652;9.194;2023-10-13T06:10:19;13.93;;;5.93;;
69410;SDS011;56604;48.652;9.194;2023-10-13T06:13:03;13.40;;;4.60;;
69410;SDS011;56604;48.652;9.194;2023-10-13T06:15:47;15.83;;;4.80;;
69410;SDS011;56604;48.652;9.194;2023-10-13T06:18:31;7.60;;;4.70;;
69410;SDS011;56604;48.652;9.194;2023-10-13T06:21:15;12.70;;;4.30;;
69410;SDS011;56604;48.652;9.194;2023-10-13T06:23:59;9.80;;;4.63;;
69410;SDS011;56604;48.652;9.194;2023-10-13T06:26:43;14.30;;;4.00;;
69410;SDS011;56604;48.652;9.194;2023-10-13T06:29:27;12.07;;;4.67;;
69410;SDS011;56604;48.652;9.194;2023-10-13T06:31:52;9.87;;;4.00;;
69410;SDS011;56604;48.652;9.194;2023-10-13T06:34:17;15.00;;;4.70;;
69410;SDS011;56604;48.652;9.194;2023-10-13T06:36:45;14.77;;;4.50;;
69410;SDS011;56604;48.652;9.194;2023-10-13T06:39:12;8.43;;;4.53;;
69410;SDS011;56604;48.652;9.194;2023-10-13T06:42:06;13.37;;;3.97;;
69410;SDS011;56604;48.652;9.194;2023-10-13T06:44:32;13.40;;;4.70;;
69410;SDS011;56604;48.652;9.194;2023-10-13T06:46:57;6.60;;;4.20;;
69410;SDS011;56604;48.652;9.194;2023-10-13T06:49:23;8.97;;;4.60;;
69410;SDS011;56604;48.652;9.194;2023-10-13T06:51:49;11.03;;;4.30;;
69410;SDS011;56604;48.652;9.194;2023-10-13T06:54:14;10.80;;;5.03;;
69410;SDS011;56604;48.652;9.194;2023-10-13T06:56:46;11.80;;;4.33;;
69410;SDS011;56604;48.652;9.194;2023-10-13T06:59:12;8.70;;;4.10;;
69410;SDS011;56604;48.652;9.194;2023-10-13T07:01:39;10.97;;;4.33;;
69410;SDS011;56604;48.652;9.194;2023-10-13T07:04:06;15.23;;;4.80;;
69410;SDS011;56604;48.652;9.194;2023-10-13T07:06:39;11.57;;;4.33;;
69410;SDS011;56604;48.652;9.194;2023-10-13T07:09:07;4.93;;;3.87;;
69410;SDS011;56604;48.652;9.194;2023-10-13T07:11:40;11.20;;;4.27;;
69410;SDS011;56604;48.652;9.194;2023-10-13T07:14:08;9.87;;;4.00;;
69410;SDS011;56604;48.652;9.194;2023-10-13T07:16:42;16.40;;;4.70;;
69410;SDS011;56604;48.652;9.194;2023-10-13T07:19:15;10.73;;;3.97;;
69410;SDS011;56604;48.652;9.194;2023-10-13T07:21:44;8.20;;;4.30;;
69410;SDS011;56604;48.652;9.194;2023-10-13T07:24:11;14.73;;;5.10;;
69410;SDS011;56604;48.652;9.194;2023-10-13T07:26:40;7.20;;;4.10;;
69410;SDS011;56604;48.652;9.194;2023-10-13T07:29:10;11.43;;;4.77;;
69410;SDS011;56604;48.652;9.194;2023-10-13T07:31:36;17.77;;;5.07;;
69410;SDS011;56604;48.652;9.194;2023-10-13T07:34:04;15.67;;;4.70;;
69410;SDS011;56604;48.652;9.194;2023-10-13T07:36:38;17.73;;;5.27;;
69410;SDS011;56604;48.652;9.194;2023-10-13T07:39:05;11.20;;;4.70;;
69410;SDS011;56604;48.652;9.194;2023-10-13T07:41:48;10.77;;;3.53;;
69410;SDS011;56604;48.652;9.194;2023-10-13T07:44:22;15.63;;;4.30;;
69410;SDS011;56604;48.652;9.194;2023-10-13T07:46:53;15.47;;;3.97;;
69410;SDS011;56604;48.652;9.194;2023-10-13T07:49:58;8.40;;;4.30;;
69410;SDS011;56604;48.652;9.194;2023-10-13T07:52:16;11.37;;;3.80;;
69410;SDS011;56604;48.652;9.194;2023-10-13T07:54:45;7.37;;;4.17;;
69410;SDS011;56604;48.652;9.194;2023-10-13T07:57:31;17.83;;;4.97;;
69410;SDS011;56604;48.652;9.194;2023-10-13T07:59:56;7.87;;;4.27;;
69410;SDS011;56604;48.652;9.194;2023-10-13T08:02:42;10.33;;;4.10;;
69410;SDS011;56604;48.652;9.194;2023-10-13T08:05:14;8.87;;;4.20;;
69410;SDS011;56604;48.652;9.194;2023-10-13T08:07:49;14.53;;;4.43;;
69410;SDS011;56604;48.652;9.194;2023-10-13T08:10:17;13.03;;;4.80;;
69410;SDS011;56604;48.652;9.194;2023-10-13T08:12:42;14.73;;;4.80;;
69410;SDS011;56604;48.652;9.194;2023-10-13T08:15:09;16.40;;;3.73;;
69410;SDS011;56604;48.652;9.194;2023-10-13T08:17:46;5.73;;;3.90;;
69410;SDS011;56604;48.652;9.194;2023-10-13T08:20:11;9.23;;;3.50;;
69410;SDS011;56604;48.652;9.194;2023-10-13T08:22:37;5.90;;;3.87;;
69410;SDS011;56604;48.652;9.194;2023-10-13T08:25:03;7.13;;;3.73;;
69410;SDS011;56604;48.652;9.194;2023-10-13T08:28:07;15.80;;;4.13;;
69410;SDS011;56604;48.652;9.194;2023-10-13T08:30:51;10.70;;;3.60;;
69410;SDS011;56604;48.652;9.194;2023-10-13T08:33:17;19.77;;;4.80;;
69410;SDS011;56604;48.652;9.194;2023-10-13T08:35:43;6.37;;;3.93;;
69410;SDS011;56604;48.652;9.194;2023-10-13T08:38:19;7.77;;;3.63;;
69410;SDS011;56604;48.652;9.194;2023-10-13T08:40:57;5.87;;;3.40;;
69410;SDS011;56604;48.652;9.194;2023-10-13T08:43:43;6.63;;;4.10;;
69410;SDS011;56604;48.652;9.194;2023-10-13T08:46:16;4.93;;;3.70;;
69410;SDS011;56604;48.652;9.194;2023-10-13T08:48:55;13.83;;;4.10;;
69410;SDS011;56604;48.652;9.194;2023-10-13T08:51:39;17.17;;;4.63;;
69410;SDS011;56604;48.652;9.194;2023-10-13T08:54:13;10.33;;;3.70;;
69410;SDS011;56604;48.652;9.194;2023-10-13T08:56:58;5.17;;;3.17;;
69410;SDS011;56604;48.652;9.194;2023-10-13T08:59:39;8.03;;;3.70;;
69410;SDS011;56604;48.652;9.194;2023-10-13T09:02:18;14.07;;;3.87;;
69410;SDS011;56604;48.652;9.194;2023-10-13T09:04:47;9.83;;;3.87;;
69410;SDS011;56604;48.652;9.194;2023-10-13T09:07:24;10.90;;;4.10;;
69410;SDS011;56604;48.652;9.194;2023-10-13T09:09:50;6.10;;;4.20;;
69410;SDS011;56604;48.652;9.194;2023-10-13T09:12:23;6.20;;;3.97;;
69410;SDS011;56604;48.652;9.194;2023-10-13T09:15:03;13.27;;;3.50;;
69410;SDS011;56604;48.652;9.194;2023-10-13T09:17:40;9.40;;;3.50;;
69410;SDS011;56604;48.652;9.194;2023-10-13T09:20:07;24.33;;;3.67;;
69410;SDS011;56604;48.652;9.194;2023-10-13T09:22:53;7.23;;;3.43;;
69410;SDS011;56604;48.652;9.194;2023-10-13T09:25:28;11.97;;;4.10;;
69410;SDS011;56604;48.652;9.194;2023-10-13T09:27:58;15.43;;;3.77;;
69410;SDS011;56604;48.652;9.194;2023-10-13T09:30:25;15.20;;;3.93;;
69410;SDS011;56604;48.652;9.194;2023-10-13T09:33:03;13.80;;;3.53;;
69410;SDS011;56604;48.652;9.194;2023-10-13T09:35:30;8.33;;;4.00;;
69410;SDS011;56604;48.652;9.194;2023-10-13T09:37:59;11.93;;;3.73;;
69410;SDS011;56604;48.652;9.194;2023-10-13T09:40:27;10.53;;;3.50;;
69410;SDS011;56604;48.652;9.194;2023-10-13T09:42:59;9.50;;;3.00;;
69410;SDS011;56604;48.652;9.194;2023-10-13T09:45:32;15.03;;;3.30;;
69410;SDS011;56604;48.652;9.194;2023-10-13T09:48:09;13.43;;;3.60;;
69410;SDS011;56604;48.652;9.194;2023-10-13T09:50:43;16.70;;;3.40;;
69410;SDS011;56604;48.652;9.194;2023-10-13T09:53:11;9.33;;;3.50;;
69410;SDS011;56604;48.652;9.194;2023-10-13T09:55:43;11.10;;;3.47;;
69410;SDS011;56604;48.652;9.194;2023-10-13T09:58:11;10.83;;;3.33;;
69410;SDS011;56604;48.652;9.194;2023-10-13T10:00:50;9.53;;;3.23;;
69410;SDS011;56604;48.652;9.194;2023-10-13T10:03:45;8.57;;;3.73;;
69410;SDS011;56604;48.652;9.194;2023-10-13T10:06:21;10.40;;;3.43;;
69410;SDS011;56604;48.652;9.194;2023-10-13T10:08:52;6.30;;;3.00;;
69410;SDS011;56604;48.652;9.194;2023-10-13T10:14:16;7.00;;;3.60;;
69410;SDS011;56604;48.652;9.194;2023-10-13T10:16:54;6.77;;;3.43;;
69410;SDS011;56604;48.652;9.194;2023-10-13T10:19:26;7.80;;;3.10;;
69410;SDS011;56604;48.652;9.194;2023-10-13T10:22:03;7.10;;;3.30;;
69410;SDS011;56604;48.652;9.194;2023-10-13T10:24:41;12.30;;;3.13;;
69410;SDS011;56604;48.652;9.194;2023-10-13T10:27:07;18.53;;;3.80;;
69410;SDS011;56604;48.652;9.194;2023-10-13T10:29:33;15.33;;;3.50;;
69410;SDS011;56604;48.652;9.194;2023-10-13T10:31:59;5.20;;;2.90;;
69410;SDS011;56604;48.652;9.194;2023-10-13T10:34:29;11.00;;;3.50;;
69410;SDS011;56604;48.652;9.194;2023-10-13T10:36:57;11.80;;;3.30;;
69410;SDS011;56604;48.652;9.194;2023-10-13T10:39:36;21.63;;;3.57;;
69410;SDS011;56604;48.652;9.194;2023-10-13T10:42:10;10.20;;;3.23;;
69410;SDS011;56604;48.652;9.194;2023-10-13T10:44:54;17.93;;;3.10;;
69410;SDS011;56604;48.652;9.194;2023-10-13T10:47:30;7.43;;;3.23;;
69410;SDS011;56604;48.652;9.194;2023-10-13T10:49:59;17.37;;;3.10;;
69410;SDS011;56604;48.652;9.194;2023-10-13T10:52:28;10.20;;;3.20;;
69410;SDS011;56604;48.652;9.194;2023-10-13T10:55:01;7.30;;;2.87;;
69410;SDS011;56604;48.652;9.194;2023-10-13T10:57:27;10.20;;;3.10;;
69410;SDS011;56604;48.652;9.194;2023-10-13T11:00:02;14.27;;;3.37;;
69410;SDS011;56604;48.652;9.194;2023-10-13T11:02:39;10.77;;;3.30;;
69410;SDS011;56604;48.652;9.194;2023-10-13T11:05:06;16.77;;;4.03;;
69410;SDS011;56604;48.652;9.194;2023-10-13T11:07:32;13.60;;;4.00;;
69410;SDS011;56604;48.652;9.194;2023-10-13T11:10:09;21.27;;;3.50;;
69410;SDS011;56604;48.652;9.194;2023-10-13T11:12:53;8.73;;;3.10;;
69410;SDS011;56604;48.652;9.194;2023-10-13T11:15:41;8.90;;;3.10;;
69410;SDS011;56604;48.652;9.194;2023-10-13T11:18:09;7.63;;;3.17;;
69410;SDS011;56604;48.652;9.194;2023-10-13T11:20:41;14.77;;;3.70;;
69410;SDS011;56604;48.652;9.194;2023-10-13T11:23:10;7.20;;;3.10;;
69410;SDS011;56604;48.652;9.194;2023-10-13T11:25:38;13.40;;;3.40;;
69410;SDS011;56604;48.652;9.194;2023-10-13T11:28:15;4.33;;;3.20;;
69410;SDS011;56604;48.652;9.194;2023-10-13T11:31:00;7.63;;;3.00;;
69410;SDS011;56604;48.652;9.194;2023-10-13T11:33:35;17.33;;;3.30;;
69410;SDS011;56604;48.652;9.194;2023-10-13T11:36:01;9.00;;;3.23;;
69410;SDS011;56604;48.652;9.194;2023-10-13T11:38:28;10.10;;;3.63;;
69410;SDS011;56604;48.652;9.194;2023-10-13T11:41:15;9.33;;;3.27;;
69410;SDS011;56604;48.652;9.194;2023-10-13T11:43:42;9.57;;;3.37;;
69410;SDS011;56604;48.652;9.194;2023-10-13T11:46:09;17.07;;;3.73;;
69410;SDS011;56604;48.652;9.194;2023-10-13T11:48:38;15.63;;;3.60;;
69410;SDS011;56604;48.652;9.194;2023-10-13T11:51:07;12.60;;;3.57;;
69410;SDS011;56604;48.652;9.194;2023-10-13T11:53:49;10.07;;;2.97;;
69410;SDS011;56604;48.652;9.194;2023-10-13T11:56:17;12.10;;;3.00;;
69410;SDS011;56604;48.652;9.194;2023-10-13T11:58:45;8.57;;;3.47;;
69410;SDS011;56604;48.652;9.194;2023-10-13T12:01:12;8.50;;;3.33;;
69410;SDS011;56604;48.652;9.194;2023-10-13T12:03:37;11.97;;;3.47;;
69410;SDS011;56604;48.652;9.194;2023-10-13T12:06:23;15.70;;;3.33;;
69410;SDS011;56604;48.652;9.194;2023-10-13T12:09:04;10.77;;;3.50;;
69410;SDS011;56604;48.652;9.194;2023-10-13T12:11:45;5.33;;;3.00;;
69410;SDS011;56604;48.652;9.194;2023-10-13T12:14:19;7.97;;;3.50;;
69410;SDS011;56604;48.652;9.194;2023-10-13T12:19:21;7.93;;;3.03;;
69410;SDS011;56604;48.652;9.194;2023-10-13T12:21:56;14.20;;;3.10;;
69410;SDS011;56604;48.652;9.194;2023-10-13T12:24:22;22.97;;;3.93;;
69410;SDS011;56604;48.652;9.194;2023-10-13T12:27:00;4.20;;;3.33;;
69410;SDS011;56604;48.652;9.194;2023-10-13T12:29:26;10.67;;;3.67;;
69410;SDS011;56604;48.652;9.194;2023-10-13T12:31:55;11.83;;;4.20;;
69410;SDS011;56604;48.652;9.194;2023-10-13T12:34:35;16.03;;;3.27;;
69410;SDS011;56604;48.652;9.194;2023-10-13T12:37:19;10.10;;;3.40;;
69410;SDS011;56604;48.652;9.194;2023-10-13T12:40:06;6.60;;;3.80;;
69410;SDS011;56604;48.652;9.194;2023-10-13T12:42:52;8.20;;;3.37;;
69410;SDS011;56604;48.652;9.194;2023-10-13T12:45:50;22.33;;;4.10;;
69410;SDS011;56604;48.652;9.194;2023-10-13T12:48:36;17.53;;;3.93;;
69410;SDS011;56604;48.652;9.194;2023-10-13T12:51:21;6.33;;;3.40;;
69410;SDS011;56604;48.652;9.194;2023-10-13T12:53:56;9.83;;;3.50;;
69410;SDS011;56604;48.652;9.194;2023-10-13T12:56:29;15.00;;;3.90;;
69410;SDS011;56604;48.652;9.194;2023-10-13T12:58:55;21.50;;;3.80;;
69410;SDS011;56604;48.652;9.194;2023-10-13T13:01:21;8.43;;;3.80;;
69410;SDS011;56604;48.652;9.194;2023-10-13T13:03:48;11.40;;;3.60;;
69410;SDS011;56604;48.652;9.194;2023-10-13T13:08:49;5.97;;;3.90;;
69410;SDS011;56604;48.652;9.194;2023-10-13T13:11:16;10.70;;;3.93;;
69410;SDS011;56604;48.652;9.194;2023-10-13T13:13:41;19.73;;;3.87;;
69410;SDS011;56604;48.652;9.194;2023-10-13T13:16:06;16.70;;;3.83;;
69410;SDS011;56604;48.652;9.194;2023-10-13T13:18:32;16.67;;;3.53;;
69410;SDS011;56604;48.652;9.194;2023-10-13T13:20:59;8.17;;;3.43;;
69410;SDS011;56604;48.652;9.194;2023-10-13T13:23:25;15.30;;;3.80;;
69410;SDS011;56604;48.652;9.194;2023-10-13T13:25:51;5.87;;;3.00;;
69410;SDS011;56604;48.652;9.194;2023-10-13T13:28:17;8.57;;;3.27;;
69410;SDS011;56604;48.652;9.194;2023-10-13T13:30:43;4.93;;;3.10;;
69410;SDS011;56604;48.652;9.194;2023-10-13T13:33:09;4.93;;;3.37;;
69410;SDS011;56604;48.652;9.194;2023-10-13T13:35:40;13.30;;;3.23;;
69410;SDS011;56604;48.652;9.194;2023-10-13T13:38:07;9.00;;;3.37;;
69410;SDS011;56604;48.652;9.194;2023-10-13T13:40:47;6.27;;;3.77;;
69410;SDS011;56604;48.652;9.194;2023-10-13T13:43:19;5.33;;;3.40;;
69410;SDS011;56604;48.652;9.194;2023-10-13T13:46:06;5.27;;;2.87;;
69410;SDS011;56604;48.652;9.194;2023-10-13T13:48:36;10.40;;;3.23;;
69410;SDS011;56604;48.652;9.194;2023-10-13T13:51:03;8.53;;;3.07;;
69410;SDS011;56604;48.652;9.194;2023-10-13T13:53:31;14.50;;;3.43;;
69410;SDS011;56604;48.652;9.194;2023-10-13T13:56:07;8.47;;;3.00;;
69410;SDS011;56604;48.652;9.194;2023-10-13T13:58:32;6.90;;;3.17;;
69410;SDS011;56604;48.652;9.194;2023-10-13T14:01:01;4.87;;;3.13;;
69410;SDS011;56604;48.652;9.194;2023-10-13T14:03:48;10.50;;;3.10;;
69410;SDS011;56604;48.652;9.194;2023-10-13T14:06:18;13.83;;;3.10;;
69410;SDS011;56604;48.652;9.194;2023-10-13T14:08:52;4.37;;;2.87;;
69410;SDS011;56604;48.652;9.194;2023-10-13T14:11:21;13.83;;;2.80;;
69410;SDS011;56604;48.652;9.194;2023-10-13T14:14:20;14.50;;;3.10;;
69410;SDS011;56604;48.652;9.194;2023-10-13T14:16:52;9.63;;;3.07;;
69410;SDS011;56604;48.652;9.194;2023-10-13T14:19:18;11.15;;;3.20;;
69410;SDS011;56604;48.652;9.194;2023-10-13T14:21:51;7.63;;;3.20;;
69410;SDS011;56604;48.652;9.194;2023-10-13T14:24:18;5.80;;;3.20;;
69410;SDS011;56604;48.652;9.194;2023-10-13T14:26:52;7.90;;;2.90;;
69410;SDS011;56604;48.652;9.194;2023-10-13T14:29:20;7.93;;;3.07;;
69410;SDS011;56604;48.652;9.194;2023-10-13T14:31:46;9.93;;;2.90;;
69410;SDS011;56604;48.652;9.194;2023-10-13T14:34:13;7.73;;;2.90;;
69410;SDS011;56604;48.652;9.194;2023-10-13T14:36:40;7.40;;;3.10;;
69410;SDS011;56604;48.652;9.194;2023-10-13T14:39:05;8.77;;;3.00;;
69410;SDS011;56604;48.652;9.194;2023-10-13T14:41:34;7.73;;;2.87;;
69410;SDS011;56604;48.652;9.194;2023-10-13T14:44:00;11.90;;;2.80;;
69410;SDS011;56604;48.652;9.194;2023-10-13T14:46:30;8.73;;;2.87;;
69410;SDS011;56604;48.652;9.194;2023-10-13T14:48:56;4.30;;;3.10;;
69410;SDS011;56604;48.652;9.194;2023-10-13T14:51:21;10.60;;;2.97;;
69410;SDS011;56604;48.652;9.194;2023-10-13T14:53:47;4.13;;;2.50;;
69410;SDS011;56604;48.652;9.194;2023-10-13T14:56:14;4.73;;;2.57;;
69410;SDS011;56604;48.652;9.194;2023-10-13T14:58:41;3.70;;;2.60;;
69410;SDS011;56604;48.652;9.194;2023-10-13T15:01:14;3.87;;;2.50;;
69410;SDS011;56604;48.652;9.194;2023-10-13T15:03:41;9.90;;;2.65;;
69410;SDS011;56604;48.652;9.194;2023-10-13T15:06:07;6.40;;;2.50;;
69410;SDS011;56604;48.652;9.194;2023-10-13T15:08:33;7.90;;;2.60;;
69410;SDS011;56604;48.652;9.194;2023-10-13T15:11:07;5.60;;;2.57;;
69410;SDS011;56604;48.652;9.194;2023-10-13T15:13:37;2.23;;;2.13;;
69410;SDS011;56604;48.652;9.194;2023-10-13T15:16:11;5.53;;;2.30;;
69410;SDS011;56604;48.652;9.194;2023-10-13T15:18:38;7.43;;;2.40;;
69410;SDS011;56604;48.652;9.194;2023-10-13T15:21:05;6.70;;;2.40;;
69410;SDS011;56604;48.652;9.194;2023-10-13T15:23:33;7.23;;;2.83;;